Time;durP1;ratioP1;P1;durP2;ratioP2;P2;SDS_P1;SDS_P2;PMS_P1;PMS_P2;Temp;Humidity;BMP_temperature;BMP_pressure;BME280_temperature;BME280_humidity;BME280_pressure;Samples;Min_cycle;Max_cycle;Signal;HPM_P1;HPM_P2
2021/07/19 00:00:16;;;;;;;;;;;;;;;;;;5044832;28;19925;-72
2021/07/19 00:02:43;;;;;;;;;;;;;;;;;;5025724;28;19929;-70
2021/07/19 00:05:10;;;;;;;;;;;;;;;;;;5038044;28;19931;-72
2021/07/19 00:07:37;;;;;;;;;;;;;;;;;;5030323;28;19929;-71
2021/07/19 00:10:04;;;;;;;;;;;;;;;;;;5034408;28;19925;-71
2021/07/19 00:12:31;;;;;;;;;;;;;;;;;;5030733;28;19928;-72
2021/07/19 00:14:58;;;;;;;;;;;;;;;;;;5035139;28;19925;-71
2021/07/19 00:17:25;;;;;;;;;;;;;;;;;;5032222;28;19926;-70
2021/07/19 00:19:52;;;;;;;;;;;;;;;;;;5034176;28;19986;-70
2021/07/19 00:22:19;;;;;;;;;;;;;;;;;;5036393;28;20033;-70
2021/07/19 00:24:46;;;;;;;;;;;;;;;;;;5038452;28;20260;-71
2021/07/19 00:27:13;;;;;;;;;;;;;;;;;;5031025;28;19931;-71
2021/07/19 00:29:40;;;;;;;;;;;;;;;;;;5033836;28;20004;-71
2021/07/19 00:32:07;;;;;;;;;;;;;;;;;;5031108;28;19936;-71
2021/07/19 00:34:35;;;;;;;;;;;;;;;;;;5029743;28;20004;-71
2021/07/19 00:37:02;;;;;;;;;;;;;;;;;;5032425;28;19933;-71
2021/07/19 00:39:29;;;;;;;;;;;;;;;;;;5035482;28;19936;-70
2021/07/19 00:41:55;;;;;;;;;;;;;;;;;;5028726;28;19925;-70
2021/07/19 00:44:22;;;;;;;;;;;;;;;;;;5034474;28;19936;-70
2021/07/19 00:46:49;;;;;;;;;;;;;;;;;;5031148;28;19931;-70
2021/07/19 00:49:16;;;;;;;;;;;;;;;;;;5030916;28;19933;-70
2021/07/19 00:51:43;;;;;;;;;;;;;;;;;;5032913;28;19925;-70
2021/07/19 00:54:10;;;;;;;;;;;;;;;;;;5036783;28;19971;-70
2021/07/19 00:56:39;;;;;;;;;;;;;;;;;;5033676;28;19929;-71
2021/07/19 00:59:06;;;;;;;;;;;;;;;;;;5033906;28;19926;-70
2021/07/19 01:01:33;;;;;;;;;;;;;;;;;;5029942;28;20416;-70
2021/07/19 01:04:00;;;;;;;;;;;;;;;;;;5034944;28;19926;-69
2021/07/19 01:06:27;;;;;;;;;;;;;;;;;;5032892;28;19931;-70
2021/07/19 01:08:54;;;;;;;;;;;;;;;;;;5027400;28;20288;-70
2021/07/19 01:11:21;;;;;;;;;;;;;;;;;;5041853;28;19988;-70
2021/07/19 01:13:48;;;;;;;;;;;;;;;;;;5034954;28;19929;-70
2021/07/19 01:16:15;;;;;;;;;;;;;;;;;;5033674;28;19952;-70
2021/07/19 01:18:42;;;;;;;;;;;;;;;;;;5032726;28;19933;-70
2021/07/19 01:21:09;;;;;;;;;;;;;;;;;;5039424;28;19925;-70
2021/07/19 01:23:36;;;;;;;;;;;;;;;;;;5039272;28;19931;-70
2021/07/19 01:26:03;;;;;;;;;;;;;;;;;;5038407;28;20299;-71
2021/07/19 01:28:30;;;;;;;;;;;;;;;;;;5037249;28;19948;-70
2021/07/19 01:30:57;;;;;;;;;;;;;;;;;;5037236;28;19939;-71
2021/07/19 01:33:24;;;;;;;;;;;;;;;;;;5044774;28;19933;-70
2021/07/19 01:35:51;;;;;;;;;;;;;;;;;;5044999;28;19924;-70
2021/07/19 01:38:18;;;;;;;;;;;;;;;;;;5043383;28;20416;-70
2021/07/19 01:40:45;;;;;;;;;;;;;;;;;;5039666;28;20293;-70
2021/07/19 01:43:12;;;;;;;;;;;;;;;;;;5039482;28;19925;-70
2021/07/19 01:45:39;;;;;;;;;;;;;;;;;;5045436;28;20286;-70
2021/07/19 01:48:06;;;;;;;;;;;;;;;;;;5041087;28;19925;-71
2021/07/19 01:50:33;;;;;;;;;;;;;;;;;;5041480;28;19992;-70
2021/07/19 01:53:00;;;;;;;;;;;;;;;;;;5045471;28;19924;-70
2021/07/19 01:55:27;;;;;;;;;;;;;;;;;;5033868;28;19929;-70
2021/07/19 01:57:54;;;;;;;;;;;;;;;;;;5033330;28;20365;-70
2021/07/19 02:00:21;;;;;;;;;;;;;;;;;;5039503;28;19936;-70
2021/07/19 02:02:51;;;;;;;;;;;;;;;;;;5036548;28;19933;-70
2021/07/19 02:05:18;;;;;;;;;;;;;;;;;;5049577;28;19929;-70
2021/07/19 02:07:45;;;;;;;;;;;;;;;;;;5035922;28;19929;-70
2021/07/19 02:10:13;;;;;;;;;;;;;;;;;;5035041;28;19925;-71
2021/07/19 02:12:40;;;;;;;;;;;;;;;;;;5036402;28;19932;-70
2021/07/19 02:15:07;;;;;;;;;;;;;;;;;;5038797;28;19929;-70
2021/07/19 02:17:34;;;;;;;;;;;;;;;;;;5031084;28;19929;-70
2021/07/19 02:20:01;;;;;;;;;;;;;;;;;;5034066;28;20282;-70
2021/07/19 02:22:28;;;;;;;;;;;;;;;;;;5032360;28;19929;-70
2021/07/19 02:24:55;;;;;;;;;;;;;;;;;;5032019;28;19925;-72
2021/07/19 02:27:24;;;;;;;;;;;;;;;;;;5031388;28;19926;-70
2021/07/19 02:29:51;;;;;;;;;;;;;;;;;;5043203;28;19925;-70
2021/07/19 02:32:18;;;;;;;;;;;;;;;;;;5033304;28;20382;-70
2021/07/19 02:34:45;;;;;;;;;;;;;;;;;;5034588;28;20373;-70
2021/07/19 02:37:12;;;;;;;;;;;;;;;;;;5039211;28;19933;-70
2021/07/19 02:39:39;;;;;;;;;;;;;;;;;;5035642;28;19931;-70
2021/07/19 02:42:06;;;;;;;;;;;;;;;;;;5039491;28;19932;-70
2021/07/19 02:44:33;;;;;;;;;;;;;;;;;;5031505;28;19925;-70
2021/07/19 02:46:59;;;;;;;;;;;;;;;;;;5039240;28;19925;-70
2021/07/19 02:49:26;;;;;;;;;;;;;;;;;;5040256;28;20302;-70
2021/07/19 02:51:53;;;;;;;;;;;;;;;;;;5039200;28;19925;-70
2021/07/19 02:54:20;;;;;;;;;;;;;;;;;;5033492;28;19932;-70
2021/07/19 02:56:47;;;;;;;;;;;;;;;;;;5031111;28;20153;-70
2021/07/19 02:59:14;;;;;;;;;;;;;;;;;;5036162;28;19925;-70
2021/07/19 03:01:41;;;;;;;;;;;;;;;;;;5042061;28;20411;-70
2021/07/19 03:04:08;;;;;;;;;;;;;;;;;;5042004;28;19948;-70
2021/07/19 03:06:35;;;;;;;;;;;;;;;;;;5035951;28;19936;-70
2021/07/19 03:09:02;;;;;;;;;;;;;;;;;;5031752;28;20183;-70
2021/07/19 03:11:29;;;;;;;;;;;;;;;;;;5039731;28;19979;-70
2021/07/19 03:13:59;;;;;;;;;;;;;;;;;;5038811;28;19925;-70
2021/07/19 03:16:26;;;;;;;;;;;;;;;;;;5036213;28;19925;-70
2021/07/19 03:18:53;;;;;;;;;;;;;;;;;;5037098;28;19925;-71
2021/07/19 03:21:19;;;;;;;;;;;;;;;;;;5034071;28;19929;-71
2021/07/19 03:23:46;;;;;;;;;;;;;;;;;;5029764;28;19936;-69
2021/07/19 03:26:13;;;;;;;;;;;;;;;;;;5041828;28;19925;-70
2021/07/19 03:28:40;;;;;;;;;;;;;;;;;;5031869;28;20187;-71
2021/07/19 03:31:07;;;;;;;;;;;;;;;;;;5036402;28;19925;-69
2021/07/19 03:33:34;;;;;;;;;;;;;;;;;;5026824;28;19944;-70
2021/07/19 03:36:01;;;;;;;;;;;;;;;;;;5042221;28;20372;-70
2021/07/19 03:38:28;;;;;;;;;;;;;;;;;;5050154;22;19934;-65
2021/07/19 03:40:55;;;;;;;;;;;;;;;;;;5033278;28;19932;-67
2021/07/19 03:43:22;;;;;;;;;;;;;;;;;;5035574;28;19925;-67
2021/07/19 03:45:49;;;;;;;;;;;;;;;;;;5038123;28;19925;-67
2021/07/19 03:48:16;;;;;;;;;;;;;;;;;;5028197;28;19925;-68
2021/07/19 03:50:43;;;;;;;;;;;;;;;;;;5035133;28;20385;-67
2021/07/19 03:53:10;;;;;;;;;;;;;;;;;;5030744;28;19933;-67
2021/07/19 03:55:37;;;;;;;;;;;;;;;;;;5031526;28;19933;-68
2021/07/19 03:58:04;;;;;;;;;;;;;;;;;;5036576;28;19925;-67
2021/07/19 04:00:32;;;;;;;;;;;;;;;;;;5034713;28;19925;-67
2021/07/19 04:03:03;;;;;;;;;;;;;;;;;;5036591;28;19968;-66
2021/07/19 04:05:30;;;;;;;;;;;;;;;;;;5039348;28;19929;-67
2021/07/19 04:07:57;;;;;;;;;;;;;;;;;;5026875;28;19935;-67
2021/07/19 04:10:25;;;;;;;;;;;;;;;;;;5025789;28;19932;-67
2021/07/19 04:12:52;;;;;;;;;;;;;;;;;;5031701;28;19928;-67
2021/07/19 04:15:19;;;;;;;;;;;;;;;;;;5033239;28;19940;-67
2021/07/19 04:17:46;;;;;;;;;;;;;;;;;;5033312;28;19932;-67
2021/07/19 04:20:13;;;;;;;;;;;;;;;;;;5034994;28;19956;-69
2021/07/19 04:22:40;;;;;;;;;;;;;;;;;;5031961;28;19931;-66
2021/07/19 04:25:07;;;;;;;;;;;;;;;;;;5030114;28;20308;-67
2021/07/19 04:27:34;;;;;;;;;;;;;;;;;;5039003;28;19948;-67
2021/07/19 04:30:01;;;;;;;;;;;;;;;;;;5031405;28;19925;-67
2021/07/19 04:32:28;;;;;;;;;;;;;;;;;;5031995;28;19929;-67
2021/07/19 04:34:55;;;;;;;;;;;;;;;;;;5041289;28;19936;-68
2021/07/19 04:37:22;;;;;;;;;;;;;;;;;;5030708;28;19931;-67
2021/07/19 04:39:49;;;;;;;;;;;;;;;;;;5033721;28;19925;-67
2021/07/19 04:42:16;;;;;;;;;;;;;;;;;;5033224;28;19934;-67
2021/07/19 04:44:43;;;;;;;;;;;;;;;;;;5043405;28;19924;-67
2021/07/19 04:47:10;;;;;;;;;;;;;;;;;;5030969;28;19932;-67
2021/07/19 04:49:37;;;;;;;;;;;;;;;;;;5047553;28;19932;-66
2021/07/19 04:52:04;;;;;;;;;;;;;;;;;;5039599;28;19925;-66
2021/07/19 04:54:32;;;;;;;;;;;;;;;;;;5039395;28;20399;-65
2021/07/19 04:56:59;;;;;;;;;;;;;;;;;;5035537;28;20399;-64
2021/07/19 04:59:26;;;;;;;;;;;;;;;;;;5036644;28;19925;-65
2021/07/19 05:01:53;;;;;;;;;;;;;;;;;;5028539;28;20420;-65
2021/07/19 05:04:21;;;;;;;;;;;;;;;;;;5033866;28;19932;-68
2021/07/19 05:06:48;;;;;;;;;;;;;;;;;;5041823;28;19935;-66
2021/07/19 05:09:15;;;;;;;;;;;;;;;;;;5037439;28;19925;-65
2021/07/19 05:11:42;;;;;;;;;;;;;;;;;;5034600;28;20015;-65
2021/07/19 05:14:09;;;;;;;;;;;;;;;;;;5031321;28;20421;-65
2021/07/19 05:16:36;;;;;;;;;;;;;;;;;;5033865;28;19925;-66
2021/07/19 05:19:03;;;;;;;;;;;;;;;;;;5031497;28;19925;-64
2021/07/19 05:21:30;;;;;;;;;;;;;;;;;;5041434;28;19932;-64
2021/07/19 05:23:57;;;;;;;;;;;;;;;;;;5037498;28;19925;-65
2021/07/19 05:26:24;;;;;;;;;;;;;;;;;;5035573;28;19925;-65
2021/07/19 05:28:51;;;;;;;;;;;;;;;;;;5034815;28;19929;-66
2021/07/19 05:31:18;;;;;;;;;;;;;;;;;;5038340;28;20324;-65
2021/07/19 05:33:45;;;;;;;;;;;;;;;;;;5035433;28;19932;-65
2021/07/19 05:36:12;;;;;;;;;;;;;;;;;;5039554;28;20289;-65
2021/07/19 05:38:39;;;;;;;;;;;;;;;;;;5036956;28;20023;-65
2021/07/19 05:41:08;;;;;;;;;;;;;;;;;;5040108;28;19925;-64
2021/07/19 05:43:35;;;;;;;;;;;;;;;;;;5032492;28;19932;-65
2021/07/19 05:46:02;;;;;;;;;;;;;;;;;;5032394;28;19925;-65
2021/07/19 05:48:29;;;;;;;;;;;;;;;;;;5039177;28;19955;-66
2021/07/19 05:50:57;;;;;;;;;;;;;;;;;;5041585;28;19940;-65
2021/07/19 05:53:24;;;;;;;;;;;;;;;;;;5040928;28;19925;-65
2021/07/19 05:55:50;;;;;;;;;;;;;;;;;;5036101;28;19933;-65
2021/07/19 05:58:18;;;;;;;;;;;;;;;;;;5034991;28;19932;-64
2021/07/19 06:00:45;;;;;;;;;;;;;;;;;;5037686;28;20020;-66
2021/07/19 06:03:12;;;;;;;;;;;;;;;;;;5032498;28;19972;-64
2021/07/19 06:05:39;;;;;;;;;;;;;;;;;;5030608;28;19925;-65
2021/07/19 06:08:06;;;;;;;;;;;;;;;;;;5032234;28;19925;-66
2021/07/19 06:10:33;;;;;;;;;;;;;;;;;;5033804;28;19925;-64
2021/07/19 06:13:00;;;;;;;;;;;;;;;;;;5037186;28;19925;-63
2021/07/19 06:15:27;;;;;;;;;;;;;;;;;;5036526;28;19935;-64
2021/07/19 06:17:54;;;;;;;;;;;;;;;;;;5032525;28;19933;-66
2021/07/19 06:20:27;;;;;;;;;;;;;;;;;;5037201;28;20040;-65
2021/07/19 06:22:54;;;;;;;;;;;;;;;;;;5040627;28;19983;-66
2021/07/19 06:25:21;;;;;;;;;;;;;;;;;;5027467;28;19932;-66
2021/07/19 06:27:49;;;;;;;;;;;;;;;;;;5034297;28;19925;-65
2021/07/19 06:30:16;;;;;;;;;;;;;;;;;;5033802;28;20309;-66
2021/07/19 06:32:49;;;;;;;;;;;;;;;;;;5034105;28;19945;-66
2021/07/19 06:35:16;;;;;;;;;;;;;;;;;;5038254;28;20197;-67
2021/07/19 06:37:43;;;;;;;;;;;;;;;;;;5031816;28;19929;-65
2021/07/19 06:40:10;;;;;;;;;;;;;;;;;;5025546;28;19933;-65
2021/07/19 06:42:37;;;;;;;;;;;;;;;;;;5025325;28;19933;-66
2021/07/19 06:45:04;;;;;;;;;;;;;;;;;;5035624;28;19925;-67
2021/07/19 06:47:31;;;;;;;;;;;;;;;;;;5031438;28;19925;-66
2021/07/19 06:49:58;;;;;;;;;;;;;;;;;;5031988;28;19933;-67
2021/07/19 06:52:25;;;;;;;;;;;;;;;;;;5032944;28;19924;-65
2021/07/19 06:54:52;;;;;;;;;;;;;;;;;;5035791;28;20312;-67
2021/07/19 06:57:19;;;;;;;;;;;;;;;;;;5035508;28;19956;-67
2021/07/19 06:59:46;;;;;;;;;;;;;;;;;;5033039;28;19931;-67
2021/07/19 07:02:13;;;;;;;;;;;;;;;;;;5037171;28;19932;-67
2021/07/19 07:04:41;;;;;;;;;;;;;;;;;;5035542;28;19935;-66
2021/07/19 07:07:08;;;;;;;;;;;;;;;;;;5036232;28;20015;-67
2021/07/19 07:09:35;;;;;;;;;;;;;;;;;;5031464;28;20016;-65
2021/07/19 07:12:02;;;;;;;;;;;;;;;;;;5035512;28;20313;-67
2021/07/19 07:14:29;;;;;;;;;;;;;;;;;;5035463;28;19929;-67
2021/07/19 07:16:57;;;;;;;;;;;;;;;;;;5028728;28;19929;-64
2021/07/19 07:19:24;;;;;;;;;;;;;;;;;;5034253;28;20294;-66
2021/07/19 07:21:51;;;;;;;;;;;;;;;;;;5041817;28;19931;-67
2021/07/19 07:24:17;;;;;;;;;;;;;;;;;;5036390;28;20417;-66
2021/07/19 07:26:44;;;;;;;;;;;;;;;;;;5030927;28;19925;-67
2021/07/19 07:29:11;;;;;;;;;;;;;;;;;;5032591;28;20292;-66
2021/07/19 07:31:38;;;;;;;;;;;;;;;;;;5031469;28;20313;-66
2021/07/19 07:34:05;;;;;;;;;;;;;;;;;;5031149;28;19926;-67
2021/07/19 07:36:34;;;;;;;;;;;;;;;;;;5039658;28;19972;-66
2021/07/19 07:39:01;;;;;;;;;;;;;;;;;;5031138;28;19929;-66
2021/07/19 07:41:29;;;;;;;;;;;;;;;;;;5043002;28;19925;-67
2021/07/19 07:43:56;;;;;;;;;;;;;;;;;;5038889;28;20019;-66
2021/07/19 07:46:23;;;;;;;;;;;;;;;;;;5035930;28;20391;-66
2021/07/19 07:48:50;;;;;;;;;;;;;;;;;;5038219;28;19924;-66
2021/07/19 07:51:17;;;;;;;;;;;;;;;;;;5033370;28;19933;-66
2021/07/19 07:53:44;;;;;;;;;;;;;;;;;;5031440;28;19925;-67
2021/07/19 07:56:11;;;;;;;;;;;;;;;;;;5037641;28;19929;-67
2021/07/19 07:58:39;;;;;;;;;;;;;;;;;;5040405;28;19933;-67
2021/07/19 08:01:06;;;;;;;;;;;;;;;;;;5034355;28;20037;-68
2021/07/19 08:03:33;;;;;;;;;;;;;;;;;;5028024;28;20364;-66
2021/07/19 08:06:00;;;;;;;;;;;;;;;;;;5037377;28;19925;-65
2021/07/19 08:08:27;;;;;;;;;;;;;;;;;;5030334;28;19925;-64
2021/07/19 08:10:54;;;;;;;;;;;;;;;;;;5031116;28;19929;-65
2021/07/19 08:13:21;;;;;;;;;;;;;;;;;;5036436;28;19964;-65
2021/07/19 08:15:48;;;;;;;;;;;;;;;;;;5031571;28;19925;-65
2021/07/19 08:18:15;;;;;;;;;;;;;;;;;;5032222;28;20447;-63
2021/07/19 08:20:42;;;;;;;;;;;;;;;;;;5039106;28;20339;-64
2021/07/19 08:23:09;;;;;;;;;;;;;;;;;;5032892;28;19928;-64
2021/07/19 08:25:36;;;;;;;;;;;;;;;;;;5032180;28;19925;-65
2021/07/19 08:28:03;;;;;;;;;;;;;;;;;;5036266;28;20337;-65
2021/07/19 08:30:30;;;;;;;;;;;;;;;;;;5034060;28;19944;-65
2021/07/19 08:32:58;;;;;;;;;;;;;;;;;;5032745;28;19939;-65
2021/07/19 08:35:25;;;;;;;;;;;;;;;;;;5038069;28;19958;-65
2021/07/19 08:37:56;;;;;;;;;;;;;;;;;;5034516;28;20254;-65
2021/07/19 08:40:24;;;;;;;;;;;;;;;;;;5029624;28;20028;-67
2021/07/19 08:42:51;;;;;;;;;;;;;;;;;;5035828;28;19925;-66
2021/07/19 08:45:17;;;;;;;;;;;;;;;;;;5037438;28;19932;-67
2021/07/19 08:47:45;;;;;;;;;;;;;;;;;;5035462;28;19933;-67
2021/07/19 08:50:11;;;;;;;;;;;;;;;;;;5034622;28;19963;-67
2021/07/19 08:52:38;;;;;;;;;;;;;;;;;;5034459;28;19936;-67
2021/07/19 08:55:05;;;;;;;;;;;;;;;;;;5032869;28;19925;-67
2021/07/19 08:57:32;;;;;;;;;;;;;;;;;;5030010;28;19926;-65
2021/07/19 08:59:59;;;;;;;;;;;;;;;;;;5035809;28;19924;-66
2021/07/19 09:02:26;;;;;;;;;;;;;;;;;;5028084;28;19933;-66
2021/07/19 09:04:53;;;;;;;;;;;;;;;;;;5028277;28;20381;-67
2021/07/19 09:07:20;;;;;;;;;;;;;;;;;;5033501;28;19940;-67
2021/07/19 09:09:52;;;;;;;;;;;;;;;;;;5032919;28;20296;-67
2021/07/19 09:12:19;;;;;;;;;;;;;;;;;;5030839;28;19999;-67
2021/07/19 09:14:46;;;;;;;;;;;;;;;;;;5037294;28;20324;-67
2021/07/19 09:17:13;;;;;;;;;;;;;;;;;;5035704;28;19925;-67
2021/07/19 09:19:40;;;;;;;;;;;;;;;;;;5030092;28;20367;-65
2021/07/19 09:22:08;;;;;;;;;;;;;;;;;;5030461;28;19929;-66
2021/07/19 09:24:36;;;;;;;;;;;;;;;;;;5029653;28;20020;-66
2021/07/19 09:27:05;;;;;;;;;;;;;;;;;;5035236;28;19933;-66
2021/07/19 09:29:32;;;;;;;;;;;;;;;;;;5028139;28;19925;-66
2021/07/19 09:31:59;;;;;;;;;;;;;;;;;;5028564;28;19925;-69
2021/07/19 09:34:26;;;;;;;;;;;;;;;;;;5031565;28;20297;-66
2021/07/19 09:36:53;;;;;;;;;;;;;;;;;;5049632;22;19932;-68
2021/07/19 09:39:20;;;;;;;;;;;;;;;;;;5089261;28;19932;-68
2021/07/19 09:41:47;;;;;;;;;;;;;;;;;;5092926;28;20354;-69
2021/07/19 09:44:14;;;;;;;;;;;;;;;;;;5084752;28;19931;-69
2021/07/19 09:46:41;;;;;;;;;;;;;;;;;;5089992;28;19924;-70
2021/07/19 09:49:08;;;;;;;;;;;;;;;;;;5107772;28;19928;-68
2021/07/19 09:51:35;;;;;;;;;;;;;;;;;;5110449;28;20387;-70
2021/07/19 09:54:02;;;;;;;;;;;;;;;;;;5107709;28;20276;-68
2021/07/19 09:56:29;;;;;;;;;;;;;;;;;;5103456;28;19923;-69
2021/07/19 09:58:56;;;;;;;;;;;;;;;;;;5110217;28;19930;-68
2021/07/19 10:01:23;;;;;;;;;;;;;;;;;;5113602;28;19924;-69
2021/07/19 10:03:50;;;;;;;;;;;;;;;;;;5113174;28;19923;-71
2021/07/19 10:06:17;;;;;;;;;;;;;;;;;;5107403;28;19923;-68
2021/07/19 10:08:44;;;;;;;;;;;;;;;;;;5107186;28;19942;-68
2021/07/19 10:11:11;;;;;;;;;;;;;;;;;;5113914;27;19924;-72
2021/07/19 10:13:38;;;;;;;;;;;;;;;;;;5113260;28;20307;-71
2021/07/19 10:16:05;;;;;;;;;;;;;;;;;;5107587;28;19977;-70
2021/07/19 10:18:34;;;;;;;;;;;;;;;;;;5110536;28;20379;-70
2021/07/19 10:21:01;;;;;;;;;;;;;;;;;;5111692;28;19932;-71
2021/07/19 10:23:28;;;;;;;;;;;;;;;;;;5109751;28;19934;-68
2021/07/19 10:25:56;;;;;;;;;;;;;;;;;;5104253;28;20529;-68
2021/07/19 10:28:23;;;;;;;;;;;;;;;;;;5113335;27;19924;-69
2021/07/19 10:30:50;;;;;;;;;;;;;;;;;;5104173;28;20299;-68
2021/07/19 10:33:17;;;;;;;;;;;;;;;;;;5104821;28;19982;-72
2021/07/19 10:35:44;;;;;;;;;;;;;;;;;;5097063;28;19924;-70
2021/07/19 10:38:11;;;;;;;;;;;;;;;;;;5106988;28;19930;-67
2021/07/19 10:40:39;;;;;;;;;;;;;;;;;;5106825;28;20294;-69
2021/07/19 10:43:06;;;;;;;;;;;;;;;;;;5109128;28;19988;-69
2021/07/19 10:45:33;;;;;;;;;;;;;;;;;;5107631;27;19931;-69
2021/07/19 10:48:00;;;;;;;;;;;;;;;;;;5107097;28;19923;-70
2021/07/19 10:50:27;;;;;;;;;;;;;;;;;;5105853;28;20014;-69
2021/07/19 10:52:54;;;;;;;;;;;;;;;;;;5104983;28;19923;-70
2021/07/19 10:55:21;;;;;;;;;;;;;;;;;;5108850;28;20419;-68
2021/07/19 10:57:48;;;;;;;;;;;;;;;;;;5099068;28;19928;-69
2021/07/19 11:00:15;;;;;;;;;;;;;;;;;;5104558;28;19931;-69
2021/07/19 11:02:42;;;;;;;;;;;;;;;;;;5113360;27;19923;-69
2021/07/19 11:05:09;;;;;;;;;;;;;;;;;;5110178;28;19934;-70
2021/07/19 11:07:36;;;;;;;;;;;;;;;;;;5099110;28;20342;-68
2021/07/19 11:10:03;;;;;;;;;;;;;;;;;;5105775;28;19924;-71
2021/07/19 11:12:32;;;;;;;;;;;;;;;;;;5101421;28;20087;-70
2021/07/19 11:14:59;;;;;;;;;;;;;;;;;;5101104;28;19925;-69
2021/07/19 11:17:26;;;;;;;;;;;;;;;;;;5103846;28;19930;-72
2021/07/19 11:19:56;;;;;;;;;;;;;;;;;;5108724;27;19943;-68
2021/07/19 11:22:23;;;;;;;;;;;;;;;;;;5105222;28;19939;-69
2021/07/19 11:24:50;;;;;;;;;;;;;;;;;;5098696;28;19931;-69
2021/07/19 11:27:20;;;;;;;;;;;;;;;;;;5108587;28;19924;-67
2021/07/19 11:29:47;;;;;;;;;;;;;;;;;;5107426;28;19923;-67
2021/07/19 11:32:17;;;;;;;;;;;;;;;;;;5109202;28;19924;-69
2021/07/19 11:34:44;;;;;;;;;;;;;;;;;;5101949;28;20024;-68
2021/07/19 11:37:11;;;;;;;;;;;;;;;;;;5106021;28;20365;-68
2021/07/19 11:39:38;;;;;;;;;;;;;;;;;;5108011;28;20015;-70
2021/07/19 11:42:05;;;;;;;;;;;;;;;;;;5106430;28;19924;-68
2021/07/19 11:44:32;;;;;;;;;;;;;;;;;;5100682;28;19930;-69
2021/07/19 11:46:59;;;;;;;;;;;;;;;;;;5102143;28;19977;-71
2021/07/19 11:49:26;;;;;;;;;;;;;;;;;;5103068;28;21027;-71
2021/07/19 11:51:53;;;;;;;;;;;;;;;;;;5102602;28;19989;-72
2021/07/19 11:54:20;;;;;;;;;;;;;;;;;;5105052;28;19993;-71
2021/07/19 11:56:47;;;;;;;;;;;;;;;;;;5105280;28;19924;-71
2021/07/19 11:59:14;;;;;;;;;;;;;;;;;;5104887;28;19924;-72
2021/07/19 12:01:41;;;;;;;;;;;;;;;;;;5106459;28;20018;-72
2021/07/19 12:04:08;;;;;;;;;;;;;;;;;;5103319;28;20430;-71
2021/07/19 12:06:35;;;;;;;;;;;;;;;;;;5106554;28;19925;-71
2021/07/19 12:09:02;;;;;;;;;;;;;;;;;;5107827;28;19928;-72
2021/07/19 12:11:29;;;;;;;;;;;;;;;;;;5106866;28;19928;-72
2021/07/19 12:13:56;;;;;;;;;;;;;;;;;;5108840;28;19990;-72
2021/07/19 12:16:23;;;;;;;;;;;;;;;;;;5101709;28;20014;-71
2021/07/19 12:18:50;;;;;;;;;;;;;;;;;;5099513;28;19967;-72
2021/07/19 12:21:17;;;;;;;;;;;;;;;;;;5105321;28;19924;-71
2021/07/19 12:23:44;;;;;;;;;;;;;;;;;;5104582;28;20189;-71
2021/07/19 12:26:11;;;;;;;;;;;;;;;;;;5101538;28;19924;-70
2021/07/19 12:28:39;;;;;;;;;;;;;;;;;;5099353;28;19924;-71
2021/07/19 12:31:06;;;;;;;;;;;;;;;;;;5099254;28;19927;-70
2021/07/19 12:33:33;;;;;;;;;;;;;;;;;;5107006;28;20467;-72
2021/07/19 12:36:00;;;;;;;;;;;;;;;;;;5105004;28;19923;-72
2021/07/19 12:38:27;;;;;;;;;;;;;;;;;;5103152;28;19932;-69
2021/07/19 12:40:54;;;;;;;;;;;;;;;;;;5101360;28;19924;-70
2021/07/19 12:43:21;;;;;;;;;;;;;;;;;;5104574;28;19928;-72
2021/07/19 12:45:48;;;;;;;;;;;;;;;;;;5104460;28;19932;-73
2021/07/19 12:48:15;;;;;;;;;;;;;;;;;;5104664;28;19924;-71
2021/07/19 12:50:42;;;;;;;;;;;;;;;;;;5103768;28;19924;-71
2021/07/19 12:53:09;;;;;;;;;;;;;;;;;;5104229;28;19934;-71
2021/07/19 12:55:36;;;;;;;;;;;;;;;;;;5104675;28;19924;-72
2021/07/19 12:58:03;;;;;;;;;;;;;;;;;;5105984;28;20280;-73
2021/07/19 13:00:30;;;;;;;;;;;;;;;;;;5099973;28;19931;-72
2021/07/19 13:02:57;;;;;;;;;;;;;;;;;;5105338;28;19924;-71
2021/07/19 13:05:24;;;;;;;;;;;;;;;;;;5106390;28;19931;-71
2021/07/19 13:07:51;;;;;;;;;;;;;;;;;;5104310;28;19934;-72
2021/07/19 13:10:20;;;;;;;;;;;;;;;;;;5107719;28;20396;-71
2021/07/19 13:12:47;;;;;;;;;;;;;;;;;;5106054;28;20496;-71
2021/07/19 13:15:14;;;;;;;;;;;;;;;;;;5110043;28;19932;-72
2021/07/19 13:17:42;;;;;;;;;;;;;;;;;;5105535;28;19924;-71
2021/07/19 13:20:09;;;;;;;;;;;;;;;;;;5108564;28;20391;-72
2021/07/19 13:22:36;;;;;;;;;;;;;;;;;;5105034;28;19924;-71
2021/07/19 13:25:03;;;;;;;;;;;;;;;;;;5108588;28;19930;-70
2021/07/19 13:27:31;;;;;;;;;;;;;;;;;;5108949;28;19923;-70
2021/07/19 13:29:58;;;;;;;;;;;;;;;;;;5108020;28;19928;-70
2021/07/19 13:32:25;;;;;;;;;;;;;;;;;;5107342;28;20396;-69
2021/07/19 13:34:52;;;;;;;;;;;;;;;;;;5109433;27;19938;-72
2021/07/19 13:37:19;;;;;;;;;;;;;;;;;;5104339;28;21135;-69
2021/07/19 13:39:46;;;;;;;;;;;;;;;;;;5106757;28;20290;-71
2021/07/19 13:42:13;;;;;;;;;;;;;;;;;;5106791;28;19931;-69
2021/07/19 13:44:40;;;;;;;;;;;;;;;;;;5107778;28;19928;-70
2021/07/19 13:47:07;;;;;;;;;;;;;;;;;;5106739;28;19924;-69
2021/07/19 13:49:34;;;;;;;;;;;;;;;;;;5105294;28;20371;-70
2021/07/19 13:52:01;;;;;;;;;;;;;;;;;;5107159;27;20413;-69
2021/07/19 13:54:28;;;;;;;;;;;;;;;;;;5107610;28;20022;-74
2021/07/19 13:56:55;;;;;;;;;;;;;;;;;;5107520;28;20106;-72
2021/07/19 13:59:22;;;;;;;;;;;;;;;;;;5105287;28;19924;-69
2021/07/19 14:01:49;;;;;;;;;;;;;;;;;;5110902;28;19927;-71
2021/07/19 14:04:16;;;;;;;;;;;;;;;;;;5110405;28;20311;-70
2021/07/19 14:06:43;;;;;;;;;;;;;;;;;;5107566;28;19927;-70
2021/07/19 14:09:10;;;;;;;;;;;;;;;;;;5108362;27;19928;-70
2021/07/19 14:11:37;;;;;;;;;;;;;;;;;;5105362;28;19924;-68
2021/07/19 14:14:04;;;;;;;;;;;;;;;;;;5108988;28;20383;-69
2021/07/19 14:16:31;;;;;;;;;;;;;;;;;;5110114;28;20294;-69
2021/07/19 14:18:58;;;;;;;;;;;;;;;;;;5108570;28;20439;-69
2021/07/19 14:21:25;;;;;;;;;;;;;;;;;;5107558;28;19923;-69
2021/07/19 14:23:52;;;;;;;;;;;;;;;;;;5108655;28;19927;-68
2021/07/19 14:26:19;;;;;;;;;;;;;;;;;;5109533;27;19974;-69
2021/07/19 14:28:46;;;;;;;;;;;;;;;;;;5108074;28;20322;-68
2021/07/19 14:31:13;;;;;;;;;;;;;;;;;;5109413;28;19959;-68
2021/07/19 14:33:40;;;;;;;;;;;;;;;;;;5107775;28;20376;-69
2021/07/19 14:36:07;;;;;;;;;;;;;;;;;;5105479;28;20026;-68
2021/07/19 14:38:34;;;;;;;;;;;;;;;;;;5108579;28;20392;-69
2021/07/19 14:41:01;;;;;;;;;;;;;;;;;;5105967;28;19930;-69
2021/07/19 14:43:28;;;;;;;;;;;;;;;;;;5107669;27;19924;-69
2021/07/19 14:45:55;;;;;;;;;;;;;;;;;;5108515;28;20311;-69
2021/07/19 14:48:22;;;;;;;;;;;;;;;;;;5110349;28;19925;-70
2021/07/19 14:50:49;;;;;;;;;;;;;;;;;;5107520;28;19934;-70
2021/07/19 14:53:16;;;;;;;;;;;;;;;;;;5104007;28;20307;-70
2021/07/19 14:55:43;;;;;;;;;;;;;;;;;;5106048;28;20021;-68
2021/07/19 14:58:10;;;;;;;;;;;;;;;;;;5102045;28;19924;-69
2021/07/19 15:00:37;;;;;;;;;;;;;;;;;;5104046;27;19938;-69
2021/07/19 15:03:04;;;;;;;;;;;;;;;;;;5102424;28;19924;-70
2021/07/19 15:05:31;;;;;;;;;;;;;;;;;;5102936;28;20023;-68
2021/07/19 15:07:58;;;;;;;;;;;;;;;;;;5105243;28;19924;-69
2021/07/19 15:10:25;;;;;;;;;;;;;;;;;;5099478;28;19924;-68
2021/07/19 15:12:52;;;;;;;;;;;;;;;;;;5107036;28;19924;-70
2021/07/19 15:15:19;;;;;;;;;;;;;;;;;;5107529;28;19927;-68
2021/07/19 15:17:46;;;;;;;;;;;;;;;;;;5113451;27;19927;-69
2021/07/19 15:20:13;;;;;;;;;;;;;;;;;;5113557;28;19949;-70
2021/07/19 15:22:40;;;;;;;;;;;;;;;;;;5111443;28;19963;-70
2021/07/19 15:25:07;;;;;;;;;;;;;;;;;;5107085;28;20365;-71
2021/07/19 15:27:34;;;;;;;;;;;;;;;;;;5108531;28;20010;-71
2021/07/19 15:30:01;;;;;;;;;;;;;;;;;;5110010;28;19931;-71
2021/07/19 15:32:28;;;;;;;;;;;;;;;;;;5114318;28;20372;-70
2021/07/19 15:34:55;;;;;;;;;;;;;;;;;;5116308;28;19932;-71
2021/07/19 15:37:22;;;;;;;;;;;;;;;;;;5111115;28;19930;-71
2021/07/19 15:39:50;;;;;;;;;;;;;;;;;;5103713;28;19986;-70
2021/07/19 15:42:17;;;;;;;;;;;;;;;;;;5104349;28;19932;-70
2021/07/19 15:44:44;;;;;;;;;;;;;;;;;;5107229;28;20283;-70
2021/07/19 15:47:11;;;;;;;;;;;;;;;;;;5105297;28;19924;-70
2021/07/19 15:49:40;;;;;;;;;;;;;;;;;;5105006;28;20018;-69
2021/07/19 15:52:07;;;;;;;;;;;;;;;;;;5105706;28;19924;-69
2021/07/19 15:54:34;;;;;;;;;;;;;;;;;;5105328;28;20122;-69
2021/07/19 15:57:01;;;;;;;;;;;;;;;;;;5104779;28;19982;-68
2021/07/19 15:59:28;;;;;;;;;;;;;;;;;;5105112;28;19924;-70
2021/07/19 16:01:55;;;;;;;;;;;;;;;;;;5102696;28;20018;-69
2021/07/19 16:04:22;;;;;;;;;;;;;;;;;;5103240;28;19923;-69
2021/07/19 16:06:49;;;;;;;;;;;;;;;;;;5105129;28;19934;-68
2021/07/19 16:09:16;;;;;;;;;;;;;;;;;;5102697;28;20264;-70
2021/07/19 16:11:43;;;;;;;;;;;;;;;;;;5103409;28;20014;-68
2021/07/19 16:14:10;;;;;;;;;;;;;;;;;;5102498;28;19927;-70
2021/07/19 16:16:41;;;;;;;;;;;;;;;;;;5100549;28;19924;-69
2021/07/19 16:19:08;;;;;;;;;;;;;;;;;;5107451;28;20019;-70
2021/07/19 16:21:35;;;;;;;;;;;;;;;;;;5108498;28;19928;-74
2021/07/19 16:24:02;;;;;;;;;;;;;;;;;;5105206;28;19967;-71
2021/07/19 16:26:29;;;;;;;;;;;;;;;;;;5105878;28;19967;-70
2021/07/19 16:28:56;;;;;;;;;;;;;;;;;;5107248;28;20225;-69
2021/07/19 16:31:23;;;;;;;;;;;;;;;;;;5104076;28;20464;-69
2021/07/19 16:33:50;;;;;;;;;;;;;;;;;;5104336;28;19928;-68
2021/07/19 16:36:17;;;;;;;;;;;;;;;;;;5102305;28;20375;-68
2021/07/19 16:38:44;;;;;;;;;;;;;;;;;;5102424;28;19934;-68
2021/07/19 16:41:13;;;;;;;;;;;;;;;;;;5101929;28;19930;-69
2021/07/19 16:43:40;;;;;;;;;;;;;;;;;;5102781;28;19928;-68